Rector, Arkansas
Current Conditions -  °F | °C
As of 3:35 PM on Friday 19 Dec 2014 (Local Time) from K4M9 Reporting Station
Clear Clear  
Wind Chill: 32°   Ceiling: Unl
Heat Index: 39°   Visibility: 10mi
Dew Point: 32°   Wind: 10mph
Humidity: 75%   Direction: 50°NE
Pressure: 30.26"   Gusts: NA
Location:  36.26°N, 90.29°W
Report Text: K4M9 192135Z AUTO 05009KT 10SM CLR 04/00 A3026 RMK AO2
Loading
Personal Weather Stations






























Interactive Weather Map New forecast layout! Learn more

10-Day Weather Forecast

Advertisements
Track Severe Weather on mobile